Terminal Aerodrome Forecast
Issued by NWS Jackson, MS

Home | Current Version | Previous Version | Text Only | Print | Product List | Glossary On
Versions: 1 2 3 4 5 6 7 8 9 10 11 12
000
FTUS44 KJAN 241752
TAFGWO
TAF
KGWO 241752Z 2418/2518 17019G28KT P6SM SCT040 BKN060
     FM250000 16019G28KT P6SM VCSH BKN050
     FM250900 17019G32KT 5SM TSRA BKN025CB OVC090
     FM251200 19015G23KT P6SM VCSH BKN035
     FM251400 20016G25KT P6SM -TSRA SCT025 BKN040CB=

USA.gov is the U.S. government's official web portal to all federal, state and local government web resources and services.